Time;durP1;ratioP1;P1;durP2;ratioP2;P2;SDS_P1;SDS_P2;PMS_P1;PMS_P2;Temp;Humidity;BMP_temperature;BMP_pressure;BME280_temperature;BME280_humidity;BME280_pressure;Samples;Min_cycle;Max_cycle;Signal;HPM_P1;HPM_P2
2020/12/12 00:00:22;;;;;;;46.33;20.77;;;3.10;1.00;;;;;;4974471;28;20191;-60
2020/12/12 00:02:49;;;;;;;40.80;23.30;;;3.10;1.00;;;;;;4975646;28;20191;-60
2020/12/12 00:05:15;;;;;;;45.08;21.98;;;3.10;1.00;;;;;;4975374;28;20182;-63
2020/12/12 00:07:40;;;;;;;45.90;20.60;;;3.10;1.00;;;;;;4975408;28;20263;-63
2020/12/12 00:10:06;;;;;;;50.67;22.10;;;3.00;1.00;;;;;;4975784;28;20179;-61
2020/12/12 00:12:31;;;;;;;50.00;24.10;;;3.00;1.00;;;;;;4975571;28;20179;-63
2020/12/12 00:15:00;;;;;;;45.33;25.37;;;3.10;1.00;;;;;;4975805;28;20176;-62
2020/12/12 00:17:26;;;;;;;43.75;20.92;;;3.20;1.00;;;;;;4974268;28;20211;-64
2020/12/12 00:19:51;;;;;;;47.53;23.03;;;3.20;1.00;;;;;;4975934;28;20203;-64
2020/12/12 00:22:17;;;;;;;49.57;21.20;;;3.20;1.00;;;;;;4979589;28;20180;-61
2020/12/12 00:24:42;;;;;;;49.87;24.10;;;3.20;1.00;;;;;;4979141;28;20199;-63
2020/12/12 00:27:08;;;;;;;51.27;23.73;;;3.10;1.00;;;;;;4979279;28;20180;-62
2020/12/12 00:29:33;;;;;;;52.13;23.03;;;3.10;1.00;;;;;;4980452;28;20199;-64
2020/12/12 00:32:00;;;;;;;38.73;21.23;;;3.20;1.00;;;;;;4979423;28;20194;-61
2020/12/12 00:34:26;;;;;;;54.00;23.00;;;3.10;1.00;;;;;;4977892;28;20192;-64
2020/12/12 00:36:53;;;;;;;50.67;23.70;;;3.10;1.00;;;;;;4978291;28;20434;-64
2020/12/12 00:39:19;;;;;;;48.22;23.80;;;3.10;1.00;;;;;;4979524;28;20180;-62
2020/12/12 00:41:45;;;;;;;48.72;22.85;;;3.20;1.00;;;;;;4978462;28;20260;-64
2020/12/12 00:44:12;;;;;;;43.60;22.97;;;3.30;1.00;;;;;;4978150;28;20254;-61
2020/12/12 00:46:38;;;;;;;48.15;23.20;;;3.20;1.00;;;;;;4979046;28;20656;-64
2020/12/12 00:49:05;;;;;;;44.20;22.85;;;3.20;1.00;;;;;;4979029;28;20188;-61
2020/12/12 00:51:31;;;;;;;53.65;23.00;;;3.20;1.00;;;;;;4979212;28;20179;-61
2020/12/12 00:53:57;;;;;;;45.67;23.00;;;3.20;1.00;;;;;;4978798;28;20191;-63
2020/12/12 00:56:23;;;;;;;49.33;23.20;;;3.30;1.00;;;;;;4977725;28;20282;-61
2020/12/12 00:58:50;;;;;;;43.00;19.50;;;3.30;1.00;;;;;;4978961;28;20278;-61
2020/12/12 01:01:16;;;;;;;44.55;22.75;;;3.20;1.00;;;;;;4979383;28;20207;-62
2020/12/12 01:03:42;;;;;;;45.20;23.83;;;3.10;1.00;;;;;;4978770;28;20176;-61
2020/12/12 01:06:15;;;;;;;40.35;18.88;;;3.10;1.00;;;;;;4978509;28;20888;-64
2020/12/12 01:08:41;;;;;;;59.47;28.25;;;3.10;1.00;;;;;;4978334;28;20194;-63
2020/12/12 01:11:09;;;;;;;45.97;23.05;;;3.10;1.00;;;;;;4978772;28;20267;-61
2020/12/12 01:13:34;;;;;;;46.85;22.50;;;3.00;1.00;;;;;;4978382;28;20831;-61
2020/12/12 01:16:06;;;;;;;41.60;19.30;;;3.00;1.00;;;;;;4978268;28;20179;-64
2020/12/12 01:18:31;;;;;;;47.90;23.25;;;3.00;1.00;;;;;;4978409;28;20220;-64
2020/12/12 01:20:57;;;;;;;46.57;22.20;;;3.00;1.00;;;;;;4978623;28;20262;-63
2020/12/12 01:23:23;;;;;;;51.50;24.10;;;2.90;1.00;;;;;;4977885;28;20775;-64
2020/12/12 01:25:48;;;;;;;46.10;21.80;;;2.90;1.00;;;;;;4978106;28;20210;-64
2020/12/12 01:28:14;;;;;;;55.20;24.37;;;3.00;1.00;;;;;;4978040;28;20184;-64
2020/12/12 01:30:39;;;;;;;53.17;24.50;;;2.90;1.00;;;;;;4978253;28;20184;-64
2020/12/12 01:33:05;;;;;;;51.67;24.20;;;3.00;1.00;;;;;;4977452;28;20187;-64
2020/12/12 01:35:30;;;;;;;45.67;19.80;;;2.90;1.00;;;;;;4977773;28;20617;-61
2020/12/12 01:37:56;;;;;;;48.33;22.33;;;3.00;1.00;;;;;;4978397;28;20640;-64
2020/12/12 01:40:21;;;;;;;50.70;25.50;;;3.00;1.00;;;;;;4978460;28;20246;-62
2020/12/12 01:42:47;;;;;;;46.70;23.47;;;3.00;1.00;;;;;;4978002;28;20179;-62
2020/12/12 01:45:12;;;;;;;52.70;22.67;;;2.90;1.00;;;;;;4976599;28;20188;-63
2020/12/12 01:47:38;;;;;;;37.00;20.17;;;3.00;1.00;;;;;;4977619;28;20188;-63
2020/12/12 01:50:05;;;;;;;48.87;22.50;;;3.00;1.00;;;;;;4977631;28;20203;-61
2020/12/12 01:52:31;;;;;;;49.35;21.48;;;3.00;1.00;;;;;;4977817;28;20439;-61
2020/12/12 01:54:57;;;;;;;50.78;21.15;;;2.90;1.00;;;;;;4976805;28;20204;-63
2020/12/12 01:57:23;;;;;;;58.60;24.10;;;3.10;1.00;;;;;;4978011;28;20218;-61
2020/12/12 01:59:51;;;;;;;35.87;19.50;;;3.00;1.00;;;;;;4977357;28;20555;-62
2020/12/12 02:02:18;;;;;;;50.90;24.75;;;2.90;1.00;;;;;;4977750;28;20955;-61
2020/12/12 02:04:49;;;;;;;46.92;21.55;;;2.80;1.00;;;;;;4977257;28;20188;-61
2020/12/12 02:07:16;;;;;;;44.17;24.27;;;2.80;1.00;;;;;;4977724;28;20187;-61
2020/12/12 02:09:44;;;;;;;51.33;23.80;;;2.80;1.00;;;;;;4977711;28;20199;-63
2020/12/12 02:12:11;;;;;;;41.63;22.25;;;2.90;1.00;;;;;;4977573;28;20291;-63
2020/12/12 02:14:37;;;;;;;46.13;22.70;;;2.90;1.00;;;;;;4977137;28;20180;-63
2020/12/12 02:17:05;;;;;;;44.70;22.70;;;2.90;1.00;;;;;;4976953;28;20212;-63
2020/12/12 02:19:30;;;;;;;53.05;23.10;;;2.90;1.00;;;;;;4977450;28;20327;-63
2020/12/12 02:22:00;;;;;;;51.50;23.07;;;2.90;1.00;;;;;;4977657;28;20255;-64
2020/12/12 02:24:29;;;;;;;48.05;22.05;;;2.90;1.00;;;;;;4977223;28;20172;-61
2020/12/12 02:26:56;;;;;;;48.58;25.23;;;2.90;1.00;;;;;;4976380;28;20180;-62
2020/12/12 02:29:24;;;;;;;43.20;22.48;;;2.80;1.00;;;;;;4977292;28;20617;-62
2020/12/12 02:31:49;;;;;;;55.60;23.90;;;2.80;1.00;;;;;;4977141;28;20208;-61
2020/12/12 02:34:15;;;;;;;47.17;24.33;;;2.80;1.00;;;;;;4976253;28;20509;-61
2020/12/12 02:36:41;;;;;;;55.53;22.60;;;2.80;1.00;;;;;;4976564;28;20223;-62
2020/12/12 02:39:09;;;;;;;45.53;20.30;;;2.70;1.00;;;;;;4976954;28;20181;-62
2020/12/12 02:41:35;;;;;;;44.28;21.60;;;2.70;1.00;;;;;;4977062;28;20179;-62
2020/12/12 02:44:01;;;;;;;48.28;21.58;;;2.70;1.00;;;;;;4976011;28;20522;-61
2020/12/12 02:46:27;;;;;;;54.85;23.38;;;2.80;1.00;;;;;;4975766;28;20279;-62
2020/12/12 02:48:53;;;;;;;45.92;22.85;;;2.80;1.00;;;;;;4975665;28;20214;-64
2020/12/12 02:51:19;;;;;;;53.73;22.70;;;2.80;1.00;;;;;;4976390;28;20184;-61
2020/12/12 02:53:45;;;;;;;50.57;24.30;;;2.80;1.00;;;;;;4976331;28;20638;-61
2020/12/12 02:56:13;;;;;;;51.10;23.20;;;2.90;1.00;;;;;;4976477;28;20187;-61
2020/12/12 02:58:39;;;;;;;43.92;21.50;;;2.80;1.00;;;;;;4976470;28;20227;-64
2020/12/12 03:01:05;;;;;;;43.07;21.07;;;2.80;1.00;;;;;;4976536;28;20180;-61
2020/12/12 03:03:31;;;;;;;41.23;21.00;;;2.80;1.00;;;;;;4975045;28;20542;-63
2020/12/12 03:05:56;;;;;;;51.63;24.67;;;2.80;1.00;;;;;;4976468;28;20752;-64
2020/12/12 03:08:22;;;;;;;50.57;23.13;;;2.70;1.00;;;;;;4976513;28;20184;-61
2020/12/12 03:10:48;;;;;;;48.20;22.83;;;2.70;1.00;;;;;;4976281;28;20184;-63
2020/12/12 03:13:13;;;;;;;49.07;21.73;;;2.80;1.00;;;;;;4976012;28;20196;-63
2020/12/12 03:15:39;;;;;;;45.73;24.47;;;2.70;1.00;;;;;;4976576;28;20441;-63
2020/12/12 03:18:04;;;;;;;44.93;20.80;;;2.80;1.00;;;;;;4975775;28;20199;-63
2020/12/12 03:20:30;;;;;;;49.93;22.40;;;2.80;1.00;;;;;;4976251;28;20273;-63
2020/12/12 03:22:55;;;;;;;44.80;22.50;;;2.80;1.00;;;;;;4976126;28;20211;-63
2020/12/12 03:25:21;;;;;;;51.93;25.40;;;2.80;1.00;;;;;;4975846;28;20191;-63
2020/12/12 03:27:47;;;;;;;46.63;22.67;;;2.90;1.00;;;;;;4976268;28;20234;-63
2020/12/12 03:30:12;;;;;;;42.70;21.20;;;2.80;1.00;;;;;;4975806;28;20275;-63
2020/12/12 03:32:38;;;;;;;57.37;20.67;;;2.80;1.00;;;;;;4976352;28;20302;-63
2020/12/12 03:35:03;;;;;;;59.97;24.37;;;2.80;1.00;;;;;;4975573;28;20628;-63
2020/12/12 03:37:29;;;;;;;42.30;23.70;;;2.80;1.00;;;;;;4975751;28;20222;-63
2020/12/12 03:39:54;;;;;;;52.53;24.87;;;2.80;1.00;;;;;;4975882;28;20191;-63
2020/12/12 03:42:20;;;;;;;49.23;22.90;;;2.80;1.00;;;;;;4975905;28;20179;-60
2020/12/12 03:44:45;;;;;;;45.10;21.90;;;2.80;1.00;;;;;;4975905;28;20176;-63
2020/12/12 03:47:11;;;;;;;40.97;21.17;;;2.80;1.00;;;;;;4975811;28;20184;-63
2020/12/12 03:49:36;;;;;;;48.13;23.50;;;2.90;1.00;;;;;;4975663;28;20246;-63
2020/12/12 03:52:02;;;;;;;44.67;21.83;;;2.80;1.00;;;;;;4975351;28;20621;-63
2020/12/12 03:54:28;;;;;;;50.80;23.30;;;2.90;1.00;;;;;;4974873;28;20243;-60
2020/12/12 03:56:54;;;;;;;51.57;24.63;;;2.90;1.00;;;;;;4975004;28;20648;-63
2020/12/12 03:59:20;;;;;;;44.25;22.45;;;2.90;1.00;;;;;;4975029;28;20578;-63
2020/12/12 04:01:45;;;;;;;50.40;23.25;;;2.80;1.00;;;;;;4974795;28;20199;-63
2020/12/12 04:04:11;;;;;;;57.20;26.33;;;2.90;1.00;;;;;;4975056;28;20187;-63
2020/12/12 04:06:37;;;;;;;54.93;23.57;;;2.90;1.00;;;;;;4974851;28;20188;-63
2020/12/12 04:09:03;;;;;;;39.47;20.30;;;2.90;1.00;;;;;;4974790;28;20554;-63
2020/12/12 04:11:28;;;;;;;51.17;22.88;;;3.00;1.00;;;;;;4974793;28;20179;-63
2020/12/12 04:13:54;;;;;;;45.80;23.53;;;2.90;1.00;;;;;;4974643;28;20233;-63
2020/12/12 04:16:20;;;;;;;46.73;22.90;;;2.90;1.00;;;;;;4973704;28;20274;-61
2020/12/12 04:18:45;;;;;;;44.20;22.73;;;3.00;1.00;;;;;;4974847;28;20207;-61
2020/12/12 04:21:11;;;;;;;42.20;21.63;;;2.90;1.00;;;;;;4974864;28;20184;-61
2020/12/12 04:23:37;;;;;;;40.30;22.47;;;3.00;1.00;;;;;;4974539;28;20579;-63
2020/12/12 04:26:03;;;;;;;51.33;24.70;;;3.00;1.00;;;;;;4974669;28;20267;-61
2020/12/12 04:28:29;;;;;;;45.42;21.45;;;2.90;1.00;;;;;;4974596;28;20188;-63
2020/12/12 04:30:55;;;;;;;44.53;21.35;;;2.80;1.00;;;;;;4974375;28;20210;-63
2020/12/12 04:33:20;;;;;;;41.80;21.10;;;2.80;1.00;;;;;;4973406;28;20180;-60
2020/12/12 04:35:46;;;;;;;48.87;23.67;;;2.80;1.00;;;;;;4974359;28;20180;-63
2020/12/12 04:38:11;;;;;;;48.23;21.70;;;2.90;1.00;;;;;;4974275;28;20204;-61
2020/12/12 04:40:37;;;;;;;41.40;21.17;;;2.90;1.00;;;;;;4974360;28;20203;-60
2020/12/12 04:43:03;;;;;;;55.17;23.43;;;2.90;1.00;;;;;;4974338;28;20238;-60
2020/12/12 04:45:30;;;;;;;42.80;21.90;;;2.90;1.00;;;;;;4974210;28;20184;-61
2020/12/12 04:47:56;;;;;;;51.65;22.58;;;3.00;1.00;;;;;;4974459;28;20230;-61
2020/12/12 04:50:28;;;;;;;57.45;25.40;;;3.00;1.00;;;;;;4974567;28;20192;-60
2020/12/12 04:52:57;;;;;;;54.70;25.20;;;2.80;1.00;;;;;;4974624;28;20234;-60
2020/12/12 04:55:25;;;;;;;53.75;24.70;;;2.80;1.00;;;;;;4974262;28;20523;-60
2020/12/12 04:57:52;;;;;;;49.28;22.55;;;2.90;1.00;;;;;;4974422;28;20216;-60
2020/12/12 05:00:19;;;;;;;58.83;27.27;;;2.80;1.00;;;;;;4974183;28;20204;-60
2020/12/12 05:02:46;;;;;;;49.70;23.50;;;2.90;1.00;;;;;;4974313;28;20271;-60
2020/12/12 05:05:11;;;;;;;53.63;23.58;;;2.80;1.00;;;;;;4974092;28;20491;-60
2020/12/12 05:07:37;;;;;;;50.17;23.57;;;2.90;1.00;;;;;;4975812;28;20180;-63
2020/12/12 05:10:04;;;;;;;53.13;26.13;;;2.90;1.00;;;;;;4977687;28;20532;-61
2020/12/12 05:12:29;;;;;;;49.05;23.85;;;2.90;1.00;;;;;;4977698;28;20275;-63
2020/12/12 05:14:55;;;;;;;49.30;23.70;;;2.80;1.00;;;;;;4977199;28;20267;-63
2020/12/12 05:17:21;;;;;;;50.90;25.70;;;2.70;1.00;;;;;;4977384;28;20269;-63
2020/12/12 05:19:50;;;;;;;52.10;24.07;;;2.60;1.00;;;;;;4977473;28;20180;-63
2020/12/12 05:22:16;;;;;;;67.45;26.20;;;2.70;1.00;;;;;;4977351;28;20423;-61
2020/12/12 05:24:43;;;;;;;49.70;23.23;;;2.80;1.00;;;;;;4977263;28;20219;-63
2020/12/12 05:27:09;;;;;;;49.25;24.73;;;2.80;1.00;;;;;;4977397;28;20195;-63
2020/12/12 05:29:34;;;;;;;56.17;25.40;;;2.80;1.00;;;;;;4977346;28;20218;-60
2020/12/12 05:32:00;;;;;;;55.43;24.70;;;2.70;1.00;;;;;;4977219;28;20187;-60
2020/12/12 05:34:26;;;;;;;55.67;25.37;;;2.70;1.00;;;;;;4976955;28;20184;-60
2020/12/12 05:36:53;;;;;;;47.08;23.50;;;2.70;1.00;;;;;;4976946;28;20203;-63
2020/12/12 05:39:18;;;;;;;55.92;23.27;;;2.80;1.00;;;;;;4977118;28;20183;-60
2020/12/12 05:41:46;;;;;;;62.43;26.40;;;2.70;1.00;;;;;;4976290;28;20187;-60
2020/12/12 05:44:13;;;;;;;53.17;23.88;;;2.80;1.00;;;;;;4976859;28;20263;-60
2020/12/12 05:46:39;;;;;;;52.58;21.80;;;2.80;1.00;;;;;;4976899;28;20184;-63
2020/12/12 05:49:05;;;;;;;45.80;22.30;;;2.80;1.00;;;;;;4976828;28;20529;-63
2020/12/12 05:51:31;;;;;;;50.22;27.65;;;2.70;1.00;;;;;;4976831;28;20492;-63
2020/12/12 05:53:58;;;;;;;52.90;25.85;;;2.60;1.00;;;;;;4976584;28;20266;-63
2020/12/12 05:56:25;;;;;;;55.03;25.55;;;2.60;1.00;;;;;;4975933;28;20184;-63
2020/12/12 05:58:52;;;;;;;55.42;26.23;;;2.70;1.00;;;;;;4975723;28;20215;-63
2020/12/12 06:01:23;;;;;;;53.22;22.88;;;2.80;1.00;;;;;;4976646;28;20207;-64
2020/12/12 06:04:02;;;;;;;52.90;25.48;;;2.70;1.00;;;;;;4976233;28;20183;-63
2020/12/12 06:06:28;;;;;;;58.97;24.73;;;2.60;1.00;;;;;;4976689;28;20207;-63
2020/12/12 06:09:06;;;;;;;47.92;21.95;;;2.60;1.00;;;;;;4976624;28;20199;-61
2020/12/12 06:11:34;;;;;;;46.78;22.85;;;2.60;1.00;;;;;;4976858;28;20184;-60
2020/12/12 06:14:04;;;;;;;66.22;28.55;;;2.60;1.00;;;;;;4982775;28;20248;-61
2020/12/12 06:16:31;;;;;;;49.58;22.55;;;2.70;1.00;;;;;;4985496;28;20258;-64
2020/12/12 06:18:59;;;;;;;59.35;25.08;;;2.60;1.00;;;;;;4984217;28;20218;-63
2020/12/12 06:21:28;;;;;;;50.50;21.83;;;2.70;1.00;;;;;;4983823;28;20195;-64
2020/12/12 06:23:54;;;;;;;58.30;27.77;;;2.60;1.00;;;;;;4984380;28;20180;-64
2020/12/12 06:26:47;;;;;;;57.13;24.83;;;2.70;1.00;;;;;;4985185;28;20176;-64
2020/12/12 06:29:14;;;;;;;51.72;21.98;;;2.80;1.00;;;;;;4982391;28;20505;-63
2020/12/12 06:31:41;;;;;;;55.67;25.10;;;2.70;1.00;;;;;;4982457;28;20194;-63
2020/12/12 06:34:07;;;;;;;55.63;25.23;;;2.70;1.00;;;;;;4983102;28;20231;-64
2020/12/12 06:36:34;;;;;;;54.03;23.65;;;2.70;1.00;;;;;;4982302;28;20180;-64
2020/12/12 06:39:24;;;;;;;53.97;24.63;;;2.80;1.00;;;;;;4983108;28;20219;-64
2020/12/12 06:41:55;;;;;;;50.53;22.67;;;2.70;1.00;;;;;;4982825;28;20203;-64
2020/12/12 06:44:35;;;;;;;52.35;26.80;;;2.70;1.00;;;;;;4979263;28;20250;-64
2020/12/12 06:47:01;;;;;;;54.10;24.80;;;2.60;1.00;;;;;;4978672;28;20183;-64
2020/12/12 06:49:27;;;;;;;55.85;24.92;;;2.60;1.00;;;;;;4980007;28;20246;-64
2020/12/12 06:51:53;;;;;;;56.97;24.23;;;2.60;1.00;;;;;;4979349;28;20195;-64
2020/12/12 06:54:20;;;;;;;58.20;26.20;;;2.70;1.00;;;;;;4981393;28;20919;-64
2020/12/12 06:56:46;;;;;;;52.40;24.83;;;2.70;1.00;;;;;;4977611;28;20180;-64
2020/12/12 06:59:29;;;;;;;55.17;25.17;;;2.70;1.00;;;;;;4974459;28;20192;-62
2020/12/12 07:02:00;;;;;;;59.80;24.95;;;2.70;1.00;;;;;;4974725;28;20449;-60
2020/12/12 07:04:33;;;;;;;50.25;23.60;;;2.70;1.00;;;;;;4975545;28;20176;-61
2020/12/12 07:07:08;;;;;;;58.60;22.80;;;2.80;1.00;;;;;;4975304;28;20560;-59
2020/12/12 07:09:39;;;;;;;47.80;21.88;;;2.60;1.00;;;;;;4974693;28;20528;-60
2020/12/12 07:12:05;;;;;;;45.45;21.58;;;2.60;1.00;;;;;;4975017;28;20187;-61
2020/12/12 07:14:30;;;;;;;49.58;24.73;;;2.60;1.00;;;;;;4974888;28;20172;-63
2020/12/12 07:16:58;;;;;;;53.20;23.93;;;2.70;1.00;;;;;;4975114;28;20680;-60
2020/12/12 07:19:51;;;;;;;55.65;25.83;;;2.80;1.00;;;;;;4975233;28;20387;-61
2020/12/12 07:22:16;;;;;;;51.03;24.27;;;2.80;1.00;;;;;;4972656;28;20195;-61
2020/12/12 07:24:42;;;;;;;53.77;26.13;;;2.80;1.00;;;;;;4974891;28;20203;-63
2020/12/12 07:27:08;;;;;;;47.13;23.00;;;2.80;1.00;;;;;;4974915;28;20603;-61
2020/12/12 07:29:34;;;;;;;53.35;25.05;;;2.80;1.00;;;;;;4974765;28;20632;-61
2020/12/12 07:32:00;;;;;;;46.70;22.23;;;2.90;1.00;;;;;;4974952;28;20183;-61
2020/12/12 07:34:27;;;;;;;48.13;23.00;;;2.90;1.00;;;;;;4974891;28;20271;-63
2020/12/12 07:37:11;;;;;;;52.03;24.63;;;2.80;1.00;;;;;;4974914;28;20459;-63
2020/12/12 07:39:39;;;;;;;54.72;25.58;;;2.80;1.00;;;;;;4974740;28;20183;-63
2020/12/12 07:42:08;;;;;;;55.30;25.63;;;2.80;1.00;;;;;;4973887;28;20188;-61
2020/12/12 07:44:34;;;;;;;51.85;26.20;;;2.90;1.00;;;;;;4974294;28;20180;-61
2020/12/12 07:47:05;;;;;;;57.17;23.48;;;2.90;1.00;;;;;;4975119;28;20187;-61
2020/12/12 07:49:32;;;;;;;48.05;22.90;;;2.90;1.00;;;;;;4974930;28;20335;-61
2020/12/12 07:51:59;;;;;;;49.13;23.30;;;2.90;1.00;;;;;;4974663;28;20215;-61
2020/12/12 07:54:31;;;;;;;50.72;25.15;;;3.00;1.00;;;;;;4974519;28;20183;-61
2020/12/12 07:56:57;;;;;;;49.78;24.77;;;3.00;1.00;;;;;;4974702;28;20584;-63
2020/12/12 07:59:23;;;;;;;46.17;19.60;;;3.00;1.00;;;;;;4974604;28;20322;-63
2020/12/12 08:01:49;;;;;;;51.83;25.53;;;3.00;1.00;;;;;;4974897;28;20191;-63
2020/12/12 08:04:20;;;;;;;48.00;23.55;;;3.10;1.00;;;;;;4957302;28;20188;-63
2020/12/12 08:06:45;;;;;;;58.83;24.60;;;3.00;1.00;;;;;;4974326;28;20180;-61
2020/12/12 08:09:11;;;;;;;52.77;23.57;;;3.10;1.00;;;;;;4974517;28;20191;-61
2020/12/12 08:11:37;;;;;;;58.03;25.00;;;3.20;1.00;;;;;;4974391;28;20180;-63
2020/12/12 08:14:05;;;;;;;46.65;23.23;;;3.10;1.00;;;;;;4974413;28;20219;-61
2020/12/12 08:16:42;;;;;;;45.80;25.85;;;3.00;1.00;;;;;;4974493;28;20628;-61
2020/12/12 08:19:08;;;;;;;55.63;23.90;;;3.00;1.00;;;;;;4974409;28;20188;-62
2020/12/12 08:21:35;;;;;;;49.87;24.47;;;3.00;1.00;;;;;;4974903;28;20238;-63
2020/12/12 08:24:05;;;;;;;47.45;22.27;;;2.90;1.00;;;;;;4974585;28;20255;-63
2020/12/12 08:26:32;;;;;;;49.30;25.25;;;2.90;1.00;;;;;;4974532;28;20259;-62
2020/12/12 08:29:02;;;;;;;44.88;21.90;;;2.90;1.00;;;;;;4974842;28;20186;-62
2020/12/12 08:31:34;;;;;;;51.20;23.92;;;2.80;1.00;;;;;;4974483;28;20202;-60
2020/12/12 08:34:00;;;;;;;46.55;21.45;;;2.90;1.00;;;;;;4974282;28;20258;-60
2020/12/12 08:36:34;;;;;;;47.73;22.40;;;2.90;1.00;;;;;;4974317;28;20191;-62
2020/12/12 08:39:07;;;;;;;49.22;24.27;;;2.90;1.00;;;;;;4974118;28;20226;-63
2020/12/12 08:41:38;;;;;;;65.15;25.00;;;2.90;1.00;;;;;;4975794;28;20246;-63
2020/12/12 08:44:05;;;;;;;42.00;22.48;;;3.00;1.00;;;;;;4977737;28;20180;-63
2020/12/12 08:46:31;;;;;;;50.47;26.00;;;2.90;1.00;;;;;;4978017;28;20238;-63
2020/12/12 08:48:56;;;;;;;53.60;26.80;;;3.00;1.00;;;;;;4977909;28;20176;-62
2020/12/12 08:51:30;;;;;;;60.47;25.50;;;3.10;1.00;;;;;;4978028;28;20183;-62
2020/12/12 08:53:56;;;;;;;50.63;22.08;;;3.00;1.00;;;;;;4977729;28;20510;-62
2020/12/12 08:56:24;;;;;;;48.88;25.73;;;2.90;1.00;;;;;;4977978;28;20186;-62
2020/12/12 08:58:58;;;;;;;46.65;25.65;;;2.80;1.00;;;;;;4982554;28;20548;-60
2020/12/12 09:01:35;;;;;;;51.67;25.05;;;2.90;1.00;;;;;;4980443;28;20194;-62
2020/12/12 09:04:04;;;;;;;49.35;23.15;;;3.00;1.00;;;;;;4957951;29;20206;-63
2020/12/12 09:06:52;;;;;;;43.55;22.55;;;3.00;1.00;;;;;;4969937;28;20210;-63
2020/12/12 09:09:24;;;;;;;50.40;26.50;;;2.90;1.00;;;;;;4996820;28;20373;-63
2020/12/12 09:12:03;;;;;;;52.25;23.13;;;3.10;1.00;;;;;;4995691;28;20218;-63
2020/12/12 09:14:31;;;;;;;57.60;27.17;;;3.10;1.00;;;;;;4996417;28;20501;-63
2020/12/12 09:16:59;;;;;;;49.25;23.42;;;3.00;1.00;;;;;;4996716;28;20187;-60
2020/12/12 09:19:26;;;;;;;47.25;24.17;;;3.10;1.00;;;;;;4996950;28;20262;-62
2020/12/12 09:21:52;;;;;;;55.92;28.90;;;3.00;1.00;;;;;;4997341;28;20215;-60
2020/12/12 09:24:22;;;;;;;57.23;25.67;;;3.00;1.00;;;;;;4996564;28;20274;-61
2020/12/12 09:26:49;;;;;;;48.30;25.55;;;3.20;1.00;;;;;;4996741;28;20504;-61
2020/12/12 09:29:15;;;;;;;53.80;26.55;;;3.10;1.00;;;;;;4996608;28;20183;-63
2020/12/12 09:31:40;;;;;;;52.53;27.40;;;3.10;1.00;;;;;;4992586;28;20238;-63
2020/12/12 09:34:06;;;;;;;55.93;26.23;;;3.10;1.00;;;;;;4977073;28;20655;-63
2020/12/12 09:36:32;;;;;;;44.60;22.30;;;3.20;1.00;;;;;;4976401;28;20204;-61
2020/12/12 09:38:58;;;;;;;52.92;24.52;;;3.40;1.00;;;;;;4976806;28;20239;-63
2020/12/12 09:41:23;;;;;;;51.03;26.00;;;3.20;1.00;;;;;;4977063;28;20222;-62
2020/12/12 09:43:49;;;;;;;49.63;23.43;;;3.20;1.00;;;;;;4977017;28;20242;-61
2020/12/12 09:46:18;;;;;;;48.13;26.03;;;3.20;1.00;;;;;;4976549;28;20184;-62
2020/12/12 09:48:45;;;;;;;48.00;25.02;;;3.10;1.00;;;;;;4976776;28;20176;-61
2020/12/12 09:51:11;;;;;;;56.25;25.58;;;3.20;1.00;;;;;;4976944;28;20199;-62
2020/12/12 09:53:37;;;;;;;51.30;26.90;;;3.20;1.00;;;;;;4975715;28;20521;-61
2020/12/12 09:56:02;;;;;;;51.45;25.65;;;3.20;1.00;;;;;;4976776;28;20526;-62
2020/12/12 09:58:28;;;;;;;52.60;24.43;;;3.20;1.00;;;;;;4976440;28;20314;-65
2020/12/12 10:00:53;;;;;;;44.93;24.43;;;3.30;1.00;;;;;;4976934;28;20431;-62
2020/12/12 10:03:19;;;;;;;44.47;23.03;;;3.30;1.00;;;;;;4976801;28;20512;-61
2020/12/12 10:05:45;;;;;;;48.53;24.67;;;3.40;1.00;;;;;;4979593;28;20191;-63
2020/12/12 10:08:11;;;;;;;47.97;24.15;;;3.40;1.00;;;;;;4996551;28;20198;-62
2020/12/12 10:10:36;;;;;;;46.37;23.90;;;3.40;1.00;;;;;;4996224;28;20190;-62
2020/12/12 10:13:02;;;;;;;48.03;23.47;;;3.60;1.00;;;;;;4994923;28;20191;-62
2020/12/12 10:15:28;;;;;;;54.07;25.10;;;3.50;1.00;;;;;;4981115;28;20204;-64
2020/12/12 10:17:54;;;;;;;55.77;24.53;;;3.60;1.00;;;;;;4975709;28;20204;-65
2020/12/12 10:20:20;;;;;;;45.38;22.95;;;3.50;1.00;;;;;;4969978;28;20597;-65
2020/12/12 10:22:46;;;;;;;51.37;25.03;;;3.30;1.00;;;;;;4976423;28;20180;-65
2020/12/12 10:25:12;;;;;;;53.90;25.47;;;3.40;1.00;;;;;;4976155;28;20514;-65
2020/12/12 10:27:38;;;;;;;47.53;26.20;;;3.40;1.00;;;;;;4976887;28;20501;-65
2020/12/12 10:30:06;;;;;;;48.42;24.85;;;3.40;1.00;;;;;;4976757;28;20183;-64
2020/12/12 10:32:32;;;;;;;45.70;24.23;;;3.50;1.00;;;;;;4974483;28;20531;-63
2020/12/12 10:34:57;;;;;;;52.17;25.30;;;3.50;1.00;;;;;;4976045;28;20230;-63
2020/12/12 10:37:23;;;;;;;48.03;26.40;;;3.50;1.00;;;;;;4976485;28;20211;-63
2020/12/12 10:39:57;;;;;;;55.10;27.33;;;3.40;1.00;;;;;;4974377;28;20184;-65
2020/12/12 10:42:23;;;;;;;51.20;26.08;;;3.40;1.00;;;;;;4970934;28;20246;-65
2020/12/12 10:44:48;;;;;;;48.10;24.50;;;3.60;1.00;;;;;;4974314;28;20215;-65
2020/12/12 10:47:14;;;;;;;56.07;25.13;;;3.80;1.00;;;;;;4976094;28;20212;-64
2020/12/12 10:49:39;;;;;;;42.73;24.40;;;3.70;99.90;;;;;;4976272;28;20247;-65
2020/12/12 10:52:06;;;;;;;55.47;25.30;;;3.70;99.90;;;;;;4976268;28;20176;-65
2020/12/12 10:54:32;;;;;;;43.25;22.80;;;3.80;99.90;;;;;;4975951;28;20176;-65
2020/12/12 10:56:58;;;;;;;53.20;27.05;;;3.80;99.90;;;;;;4975829;28;20188;-65
2020/12/12 10:59:24;;;;;;;51.08;24.10;;;3.70;99.90;;;;;;4974852;28;20188;-65
2020/12/12 11:01:55;;;;;;;47.67;25.10;;;3.70;99.90;;;;;;4974889;28;20250;-65
2020/12/12 11:04:24;;;;;;;48.33;22.42;;;3.70;99.90;;;;;;4975070;28;20254;-63
2020/12/12 11:06:50;;;;;;;46.00;25.27;;;3.70;99.90;;;;;;4976179;28;20192;-63
2020/12/12 11:09:16;;;;;;;50.83;24.63;;;3.80;99.90;;;;;;4971708;28;20207;-63
2020/12/12 11:11:41;;;;;;;50.57;24.77;;;3.80;99.90;;;;;;4975283;28;20180;-63
2020/12/12 11:14:08;;;;;;;47.30;23.70;;;3.70;99.90;;;;;;4968975;28;20555;-63
2020/12/12 11:16:33;;;;;;;50.15;25.13;;;3.80;99.90;;;;;;4974530;28;20180;-63
2020/12/12 11:18:59;;;;;;;51.23;26.40;;;3.90;99.90;;;;;;4974982;28;20223;-67
2020/12/12 11:21:25;;;;;;;44.83;23.97;;;3.90;99.90;;;;;;4975588;28;20186;-67
2020/12/12 11:23:50;;;;;;;49.37;26.17;;;4.10;99.90;;;;;;4975382;28;20180;-64
2020/12/12 11:26:17;;;;;;;65.27;30.90;;;4.00;99.90;;;;;;4975616;28;20263;-65
2020/12/12 11:28:44;;;;;;;54.85;27.35;;;4.00;99.90;;;;;;4974576;28;20435;-64
2020/12/12 11:31:22;;;;;;;51.90;27.75;;;4.10;99.90;;;;;;4975639;28;20246;-64
2020/12/12 11:33:57;;;;;;;44.80;22.70;;;4.10;99.90;;;;;;4974256;28;20184;-64
2020/12/12 11:39:18;;;;;;;42.50;23.05;;;4.00;99.90;;;;;;4974699;28;20335;-64
2020/12/12 11:44:40;;;;;;;47.47;23.50;;;4.10;99.90;;;;;;4974294;28;20180;-64
2020/12/12 11:47:06;;;;;;;46.75;22.63;;;4.10;99.90;;;;;;4975553;28;20185;-64
2020/12/12 11:49:32;;;;;;;44.27;25.70;;;4.20;99.90;;;;;;4972051;28;20275;-64
2020/12/12 11:51:57;;;;;;;42.77;24.47;;;4.20;99.90;;;;;;4974007;28;20187;-64
2020/12/12 11:54:23;;;;;;;43.57;21.27;;;4.30;99.90;;;;;;4972138;28;20188;-64
2020/12/12 11:56:48;;;;;;;43.67;24.37;;;4.30;99.90;;;;;;4970904;28;20191;-65
2020/12/12 11:59:15;;;;;;;50.53;22.97;;;4.40;99.90;;;;;;4974553;28;20201;-64
2020/12/12 12:01:41;;;;;;;55.45;24.52;;;4.20;99.90;;;;;;4972310;28;20188;-64
2020/12/12 12:04:06;;;;;;;40.53;23.93;;;4.10;99.90;;;;;;4974490;28;20188;-63
2020/12/12 12:06:32;;;;;;;41.73;23.53;;;4.10;99.90;;;;;;4973922;28;20195;-63
2020/12/12 12:13:59;;;;;;;39.60;22.92;;;4.20;1.00;;;;;;4972039;28;20197;-62
2020/12/12 12:16:25;;;;;;;41.20;23.27;;;4.40;1.00;;;;;;4976403;28;20203;-62
2020/12/12 12:18:51;;;;;;;45.65;22.58;;;5.20;1.00;;;;;;4979221;28;20199;-62
2020/12/12 12:21:17;;;;;;;49.27;25.47;;;5.10;1.00;;;;;;4977545;28;20283;-64
2020/12/12 12:23:43;;;;;;;43.07;23.47;;;5.10;99.90;;;;;;4968284;28;20192;-64
2020/12/12 12:26:09;;;;;;;38.43;22.93;;;4.90;99.90;;;;;;4977879;28;20517;-64
2020/12/12 12:28:35;;;;;;;37.08;24.13;;;4.60;99.90;;;;;;4959894;28;20859;-64
2020/12/12 12:31:01;;;;;;;42.80;24.13;;;4.30;99.90;;;;;;4974519;28;20226;-64
2020/12/12 12:33:27;;;;;;;71.60;34.45;;;4.20;1.00;;;;;;4978250;28;20530;-65
2020/12/12 12:35:53;;;;;;;43.10;24.20;;;4.10;1.00;;;;;;4978227;28;20290;-65
2020/12/12 12:38:19;;;;;;;36.60;22.30;;;4.00;1.00;;;;;;4977135;28;20204;-66
2020/12/12 12:40:45;;;;;;;51.15;24.88;;;4.00;1.00;;;;;;4977162;28;20486;-65
2020/12/12 12:43:11;;;;;;;50.10;24.73;;;4.10;1.00;;;;;;4977756;28;20184;-65
2020/12/12 12:45:36;;;;;;;40.87;21.33;;;4.20;1.00;;;;;;4978245;28;20294;-65
2020/12/12 12:48:02;;;;;;;41.83;22.80;;;4.10;1.00;;;;;;4977812;28;20192;-65
2020/12/12 12:50:34;;;;;;;42.10;24.13;;;3.90;1.00;;;;;;4976777;28;20648;-65
2020/12/12 12:53:07;;;;;;;44.10;22.40;;;3.80;1.00;;;;;;4977121;28;20195;-65
2020/12/12 12:55:34;;;;;;;41.78;22.52;;;3.80;1.00;;;;;;4977428;28;20239;-65